createdAt,value
2022-11-07T00:00:10.784Z,19.65
2022-11-07T00:02:42.772Z,15.43
2022-11-07T00:05:12.061Z,17.90
2022-11-07T00:07:41.274Z,20.42
2022-11-07T00:10:11.320Z,17.60
2022-11-07T00:12:40.844Z,19.50
2022-11-07T00:15:12.631Z,18.52
2022-11-07T00:17:41.784Z,24.35
2022-11-07T00:20:12.478Z,25.92
2022-11-07T00:22:41.706Z,25.25
2022-11-07T00:25:13.867Z,26.10
2022-11-07T00:27:43.043Z,24.50
2022-11-07T00:30:14.890Z,20.85
2022-11-07T00:32:44.018Z,22.58
2022-11-07T00:35:13.071Z,21.27
2022-11-07T00:37:42.253Z,27.38
2022-11-07T00:40:12.468Z,28.85
2022-11-07T00:42:41.672Z,25.00
2022-11-07T00:45:11.886Z,25.65
2022-11-07T00:47:42.425Z,22.23
2022-11-07T00:50:14.775Z,23.08
2022-11-07T00:52:45.188Z,19.67
2022-11-07T00:55:15.448Z,17.65
2022-11-07T00:57:47.447Z,18.67
2022-11-07T01:00:17.222Z,18.55
2022-11-07T01:03:08.355Z,21.02
2022-11-07T01:05:36.843Z,25.83
2022-11-07T01:08:06.947Z,22.55
2022-11-07T01:10:41.679Z,21.92
2022-11-07T01:13:10.884Z,23.92
2022-11-07T01:15:42.402Z,23.30
2022-11-07T01:18:13.196Z,26.88
2022-11-07T01:20:42.381Z,25.77
2022-11-07T01:23:11.628Z,20.60
2022-11-07T01:25:41.695Z,21.23
2022-11-07T01:28:11.852Z,21.70
2022-11-07T01:30:42.367Z,19.42
2022-11-07T01:33:14.252Z,22.17
2022-11-07T01:35:43.552Z,23.48
2022-11-07T01:38:12.696Z,22.50
2022-11-07T01:40:58.727Z,24.50
2022-11-07T01:43:45.051Z,26.50
2022-11-07T01:46:14.690Z,20.48
2022-11-07T01:48:50.425Z,25.92
2022-11-07T01:51:21.167Z,16.77
2022-11-07T01:53:51.559Z,16.42
2022-11-07T01:56:25.167Z,15.85
2022-11-07T01:58:55.660Z,18.45
2022-11-07T02:01:25.180Z,18.90
2022-11-07T02:03:59.860Z,18.25
2022-11-07T02:06:40.491Z,14.93
2022-11-07T02:09:09.573Z,23.42
2022-11-07T02:11:38.979Z,23.13
2022-11-07T02:14:08.592Z,16.45
2022-11-07T02:16:38.016Z,17.88
2022-11-07T02:19:19.339Z,12.73
2022-11-07T02:21:55.024Z,13.00
2022-11-07T02:24:29.955Z,14.68
2022-11-07T02:27:02.211Z,13.45
2022-11-07T02:29:33.415Z,15.20
2022-11-07T02:32:04.046Z,16.13
2022-11-07T02:34:33.284Z,17.50
2022-11-07T02:37:04.671Z,21.05
2022-11-07T02:39:35.663Z,21.83
2022-11-07T02:42:06.441Z,18.25
2022-11-07T02:44:36.245Z,21.75
2022-11-07T02:47:05.691Z,21.73
2022-11-07T02:49:34.829Z,21.02
2022-11-07T02:52:03.991Z,18.92
2022-11-07T02:54:35.162Z,18.00
2022-11-07T02:57:04.486Z,24.48
2022-11-07T02:59:33.755Z,22.75
2022-11-07T03:02:03.022Z,22.40
2022-11-07T03:04:32.290Z,16.85
2022-11-07T03:07:01.341Z,16.40
2022-11-07T03:09:30.507Z,18.98
2022-11-07T03:12:01.294Z,27.08
2022-11-07T03:14:30.422Z,23.15
2022-11-07T03:16:59.818Z,18.33
2022-11-07T03:19:28.886Z,18.08
2022-11-07T03:21:57.996Z,20.38
2022-11-07T03:24:27.151Z,14.40
2022-11-07T03:26:56.291Z,13.38
2022-11-07T03:29:26.850Z,11.50
2022-11-07T03:31:55.938Z,11.88
2022-11-07T03:34:25.056Z,11.10
2022-11-07T03:36:54.161Z,11.25
2022-11-07T03:39:25.781Z,12.18
2022-11-07T03:41:55.184Z,16.80
2022-11-07T03:44:24.319Z,14.98
2022-11-07T03:46:54.779Z,14.27
2022-11-07T03:49:23.887Z,15.52
2022-11-07T03:51:52.950Z,24.67
2022-11-07T03:54:22.082Z,20.35
2022-11-07T03:56:51.103Z,19.60
2022-11-07T03:59:20.228Z,18.45
2022-11-07T04:01:49.448Z,14.65
2022-11-07T04:04:19.996Z,19.70
2022-11-07T04:06:49.112Z,13.80
2022-11-07T04:09:18.686Z,16.70
2022-11-07T04:12:04.986Z,18.10
2022-11-07T04:15:03.094Z,14.82
2022-11-07T04:17:32.846Z,19.50
2022-11-07T04:20:03.459Z,18.67
2022-11-07T04:22:32.683Z,19.13
2022-11-07T04:25:01.835Z,16.75
2022-11-07T04:27:44.990Z,22.85
2022-11-07T04:30:24.903Z,17.27
2022-11-07T04:32:57.362Z,18.70
2022-11-07T04:35:30.331Z,21.13
2022-11-07T04:37:59.692Z,21.55
2022-11-07T04:40:29.756Z,20.13
2022-11-07T04:42:59.285Z,25.38
2022-11-07T04:45:28.429Z,15.55
2022-11-07T04:47:57.571Z,18.30
2022-11-07T04:50:28.132Z,17.48
2022-11-07T04:52:57.368Z,12.25
2022-11-07T04:55:30.616Z,16.27
2022-11-07T04:58:00.190Z,14.40
2022-11-07T05:00:29.443Z,16.58
2022-11-07T05:02:58.652Z,15.98
2022-11-07T05:05:29.299Z,12.15
2022-11-07T05:07:58.698Z,11.43
2022-11-07T05:10:29.934Z,14.77
2022-11-07T05:12:59.507Z,15.00
2022-11-07T05:15:28.590Z,17.02
2022-11-07T05:17:57.809Z,16.52
2022-11-07T05:20:34.390Z,13.70
2022-11-07T05:23:12.847Z,12.23
2022-11-07T05:25:44.047Z,11.85
2022-11-07T05:28:15.257Z,16.70
2022-11-07T05:30:46.172Z,15.35
2022-11-07T05:33:18.134Z,12.50
2022-11-07T05:35:48.924Z,13.98
2022-11-07T05:38:18.070Z,19.15
2022-11-07T05:40:47.191Z,13.32
2022-11-07T05:43:17.281Z,11.70
2022-11-07T05:45:46.796Z,17.63
2022-11-07T05:48:15.864Z,13.07
2022-11-07T05:50:44.940Z,17.35
2022-11-07T05:53:16.299Z,13.20
2022-11-07T05:55:45.653Z,12.38
2022-11-07T05:58:15.707Z,12.93
2022-11-07T06:00:44.874Z,17.00
2022-11-07T06:03:14.863Z,15.15
2022-11-07T06:05:44.797Z,14.00
2022-11-07T06:08:16.102Z,14.77
2022-11-07T06:10:45.501Z,18.05
2022-11-07T06:13:17.118Z,14.55
2022-11-07T06:15:47.664Z,17.08
2022-11-07T06:18:20.415Z,17.20
2022-11-07T06:20:50.074Z,18.30
2022-11-07T06:23:20.796Z,17.60
2022-11-07T06:25:51.687Z,20.95
2022-11-07T06:28:20.948Z,20.25
2022-11-07T06:30:50.046Z,21.33
2022-11-07T06:33:20.676Z,17.55
2022-11-07T06:35:49.972Z,15.38
2022-11-07T06:38:20.907Z,14.60
2022-11-07T06:40:50.079Z,15.82
2022-11-07T06:43:21.003Z,15.45
2022-11-07T06:45:50.260Z,21.17
2022-11-07T06:48:19.307Z,20.70
2022-11-07T06:50:48.491Z,16.23
2022-11-07T06:53:17.999Z,14.90
2022-11-07T06:55:48.715Z,15.82
2022-11-07T06:58:17.942Z,15.57
2022-11-07T07:00:47.174Z,10.90
2022-11-07T07:03:16.607Z,12.65
2022-11-07T07:05:46.105Z,11.50
2022-11-07T07:08:15.251Z,8.27
2022-11-07T07:10:46.063Z,13.02
2022-11-07T07:13:16.897Z,13.50
2022-11-07T07:15:55.123Z,12.05
2022-11-07T07:18:25.534Z,12.95
2022-11-07T07:21:02.829Z,13.25
2022-11-07T07:23:33.191Z,9.50
2022-11-07T07:26:02.886Z,13.38
2022-11-07T07:28:34.384Z,11.05
2022-11-07T07:31:23.585Z,12.90
2022-11-07T07:33:52.960Z,10.75
2022-11-07T07:36:22.227Z,11.00
2022-11-07T07:38:52.208Z,11.93
2022-11-07T07:41:21.880Z,10.10
2022-11-07T07:43:52.462Z,17.00
2022-11-07T07:46:24.412Z,18.08
2022-11-07T07:48:53.867Z,14.52
2022-11-07T07:51:23.030Z,16.13
2022-11-07T07:53:52.396Z,24.05
2022-11-07T07:56:21.668Z,20.80
2022-11-07T07:58:52.371Z,16.85
2022-11-07T08:01:21.899Z,17.25
2022-11-07T08:04:01.249Z,18.63
2022-11-07T08:06:32.637Z,23.33
2022-11-07T08:09:01.812Z,10.70
2022-11-07T08:11:31.153Z,10.50
2022-11-07T08:14:01.988Z,11.15
2022-11-07T08:16:31.418Z,10.52
2022-11-07T08:19:00.563Z,12.25
2022-11-07T08:21:29.703Z,15.45
2022-11-07T08:23:58.910Z,13.65
2022-11-07T08:26:28.268Z,9.10
2022-11-07T08:28:57.438Z,14.35
2022-11-07T08:31:28.006Z,9.73
2022-11-07T08:33:59.783Z,9.27
2022-11-07T08:36:29.705Z,8.52
2022-11-07T08:38:58.865Z,11.02
2022-11-07T08:41:28.261Z,8.70
2022-11-07T08:43:57.374Z,10.52
2022-11-07T08:46:28.017Z,8.95
2022-11-07T08:48:57.128Z,10.35
2022-11-07T08:51:26.282Z,8.93
2022-11-07T08:53:55.472Z,7.35
2022-11-07T08:56:24.848Z,8.40
2022-11-07T08:58:54.363Z,11.18
2022-11-07T09:01:23.529Z,8.40
2022-11-07T09:03:58.061Z,7.97
2022-11-07T09:06:27.909Z,8.30
2022-11-07T09:08:57.150Z,6.80
2022-11-07T09:11:26.494Z,7.57
2022-11-07T09:13:57.726Z,5.78
2022-11-07T09:16:26.818Z,9.27
2022-11-07T09:18:57.622Z,9.10
2022-11-07T09:21:26.731Z,5.97
2022-11-07T09:23:55.863Z,6.03
2022-11-07T09:26:25.560Z,6.05
2022-11-07T09:29:00.814Z,9.07
2022-11-07T09:31:30.411Z,5.63
2022-11-07T09:34:01.051Z,5.72
2022-11-07T09:36:30.151Z,12.25
2022-11-07T09:39:01.130Z,5.78
2022-11-07T09:41:45.131Z,6.63
2022-11-07T09:44:40.137Z,12.68
2022-11-07T09:47:20.944Z,7.28
2022-11-07T09:49:54.802Z,6.45
2022-11-07T09:52:38.655Z,5.97
2022-11-07T09:55:16.928Z,7.03
2022-11-07T09:57:48.047Z,6.10
2022-11-07T10:00:20.632Z,6.28
2022-11-07T10:02:55.639Z,5.85
2022-11-07T10:05:39.818Z,8.13
2022-11-07T10:08:15.729Z,5.72
2022-11-07T10:10:52.484Z,7.20
2022-11-07T10:13:53.931Z,6.18
2022-11-07T10:16:37.055Z,6.28
2022-11-07T10:19:24.277Z,4.10
2022-11-07T10:22:11.004Z,5.03
2022-11-07T10:25:03.139Z,4.35
2022-11-07T10:27:33.136Z,2.78
2022-11-07T10:30:02.705Z,6.05
2022-11-07T10:32:40.333Z,4.13
2022-11-07T10:45:43.016Z,7.68
2022-11-07T10:48:14.939Z,9.10
2022-11-07T10:50:53.432Z,4.93
2022-11-07T10:53:25.558Z,5.60
2022-11-07T10:55:56.320Z,3.78
2022-11-07T10:58:28.650Z,4.25
2022-11-07T11:01:04.399Z,4.57
2022-11-07T11:03:44.884Z,5.10
2022-11-07T11:06:27.875Z,5.70
2022-11-07T11:08:57.199Z,4.95
2022-11-07T11:11:32.331Z,5.07
2022-11-07T11:14:13.170Z,3.53
2022-11-07T11:16:44.887Z,3.65
2022-11-07T11:19:24.707Z,3.67
2022-11-07T11:21:56.754Z,2.75
2022-11-07T11:24:36.033Z,2.60
2022-11-07T11:27:14.101Z,6.82
2022-11-07T11:29:52.160Z,5.88
2022-11-07T11:32:30.950Z,6.15
2022-11-07T11:35:12.503Z,3.63
2022-11-07T11:37:48.135Z,4.80
2022-11-07T11:40:20.686Z,5.22
2022-11-07T11:42:56.233Z,4.18
2022-11-07T11:45:36.456Z,6.63
2022-11-07T11:48:24.499Z,2.50
2022-11-07T11:50:58.475Z,7.97
2022-11-07T11:53:29.010Z,6.70
2022-11-07T11:56:27.882Z,4.78
2022-11-07T11:59:24.768Z,4.10
2022-11-07T12:02:00.817Z,5.22
2022-11-07T12:04:53.130Z,4.95
2022-11-07T12:07:47.050Z,2.72
2022-11-07T12:10:26.395Z,6.15
2022-11-07T12:13:10.724Z,5.97
2022-11-07T12:15:58.717Z,8.40
2022-11-07T12:21:21.688Z,5.60
2022-11-07T12:24:17.728Z,2.33
2022-11-07T12:26:58.152Z,5.95
2022-11-07T12:29:44.358Z,5.47
2022-11-07T12:32:23.771Z,2.60
2022-11-07T12:35:10.526Z,6.20
2022-11-07T12:38:24.985Z,4.45
2022-11-07T12:41:04.858Z,4.22
2022-11-07T12:43:54.042Z,3.63
2022-11-07T12:46:31.579Z,3.35
2022-11-07T12:49:37.261Z,3.13
2022-11-07T12:52:23.730Z,5.18
2022-11-07T12:55:01.198Z,5.03
2022-11-07T13:00:23.391Z,7.05
2022-11-07T13:03:19.673Z,5.00
2022-11-07T13:06:13.746Z,4.10
2022-11-07T13:08:52.060Z,5.30
2022-11-07T13:11:33.233Z,3.38
2022-11-07T13:14:30.168Z,2.78
2022-11-07T13:17:15.909Z,4.70
2022-11-07T13:19:47.765Z,3.28
2022-11-07T13:22:32.529Z,3.85
2022-11-07T13:25:24.601Z,5.03
2022-11-07T13:28:42.118Z,3.47
2022-11-07T13:31:38.473Z,3.42
2022-11-07T13:34:26.312Z,1.52
2022-11-07T13:37:04.832Z,2.00
2022-11-07T13:39:34.902Z,2.65
2022-11-07T13:42:05.929Z,2.90
2022-11-07T13:44:39.245Z,3.40
2022-11-07T13:47:18.219Z,3.58
2022-11-07T13:49:49.494Z,1.63
2022-11-07T13:52:24.146Z,3.08
2022-11-07T13:55:00.263Z,2.47
2022-11-07T13:57:36.383Z,1.65
2022-11-07T14:00:14.519Z,2.05
2022-11-07T14:02:53.615Z,2.05
2022-11-07T14:05:26.110Z,3.90
2022-11-07T14:08:00.707Z,2.55
2022-11-07T14:10:35.072Z,2.47
2022-11-07T14:13:08.582Z,2.40
2022-11-07T14:15:47.314Z,2.90
2022-11-07T14:18:18.583Z,2.78
2022-11-07T14:20:49.596Z,4.35
2022-11-07T14:23:22.225Z,4.47
2022-11-07T14:26:01.134Z,2.42
2022-11-07T14:28:38.158Z,4.82
2022-11-07T14:31:16.853Z,2.67
2022-11-07T14:33:56.603Z,3.17
2022-11-07T14:36:27.132Z,2.92
2022-11-07T14:39:04.099Z,3.88
2022-11-07T14:41:33.488Z,3.38
2022-11-07T14:44:05.195Z,5.00
2022-11-07T14:46:35.709Z,6.13
2022-11-07T14:49:05.225Z,5.40
2022-11-07T14:51:34.491Z,5.22
2022-11-07T14:54:10.141Z,3.38
2022-11-07T14:56:43.856Z,5.60
2022-11-07T14:59:14.818Z,3.03
2022-11-07T15:01:56.012Z,4.97
2022-11-07T15:04:31.199Z,3.78
2022-11-07T15:07:11.599Z,5.93
2022-11-07T15:09:41.589Z,4.85
2022-11-07T15:12:19.424Z,7.32
2022-11-07T15:15:02.454Z,8.38
2022-11-07T15:17:40.105Z,8.40
2022-11-07T15:20:24.074Z,6.32
2022-11-07T15:22:53.203Z,3.60
2022-11-07T15:25:28.547Z,6.07
2022-11-07T15:27:57.590Z,6.50
2022-11-07T15:30:33.171Z,4.32
2022-11-07T15:33:03.786Z,3.13
2022-11-07T15:35:48.221Z,5.07
2022-11-07T15:38:20.551Z,3.60
2022-11-07T15:40:51.576Z,6.68
2022-11-07T15:43:21.126Z,8.15
2022-11-07T15:45:52.452Z,10.40
2022-11-07T15:48:29.813Z,10.02
2022-11-07T15:50:59.167Z,10.57
2022-11-07T15:53:30.331Z,11.07
2022-11-07T15:56:01.825Z,13.80
2022-11-07T15:58:31.551Z,16.67
2022-11-07T16:01:01.013Z,16.25
2022-11-07T16:03:31.761Z,13.55
2022-11-07T16:06:02.597Z,11.70
2022-11-07T16:08:32.176Z,11.20
2022-11-07T16:11:05.121Z,9.05
2022-11-07T16:13:34.306Z,8.85
2022-11-07T16:16:05.803Z,8.35
2022-11-07T16:18:43.668Z,8.20
2022-11-07T16:21:12.884Z,10.65
2022-11-07T16:23:43.220Z,7.60
2022-11-07T16:26:17.283Z,10.43
2022-11-07T16:28:46.625Z,12.65
2022-11-07T16:31:15.782Z,8.00
2022-11-07T16:33:46.410Z,11.52
2022-11-07T16:36:22.124Z,9.55
2022-11-07T16:38:51.423Z,6.50
2022-11-07T16:41:21.561Z,4.35
2022-11-07T16:43:51.114Z,7.78
2022-11-07T16:46:22.940Z,7.20
2022-11-07T16:48:59.248Z,9.15
2022-11-07T16:51:28.628Z,18.77
2022-11-07T16:53:57.908Z,15.23
2022-11-07T16:56:31.135Z,10.50
2022-11-07T16:59:01.127Z,10.55
2022-11-07T17:01:31.335Z,8.38
2022-11-07T17:04:03.699Z,12.05
2022-11-07T17:06:34.850Z,9.68
2022-11-07T17:09:13.179Z,6.85
2022-11-07T17:11:42.750Z,5.93
2022-11-07T17:14:12.296Z,5.60
2022-11-07T17:16:46.428Z,7.13
2022-11-07T17:19:17.142Z,3.97
2022-11-07T17:21:49.626Z,5.72
2022-11-07T17:24:18.848Z,6.88
2022-11-07T17:26:48.025Z,5.82
2022-11-07T17:29:17.291Z,5.47
2022-11-07T17:31:46.409Z,6.05
2022-11-07T17:34:16.852Z,11.30
2022-11-07T17:36:50.116Z,7.80
2022-11-07T17:39:21.277Z,7.75
2022-11-07T17:41:52.379Z,12.43
2022-11-07T17:44:21.484Z,11.52
2022-11-07T17:46:51.697Z,10.05
2022-11-07T17:49:22.987Z,13.32
2022-11-07T17:51:54.266Z,11.30
2022-11-07T17:54:29.081Z,9.93
2022-11-07T17:56:59.691Z,9.75
2022-11-07T17:59:28.879Z,8.77
2022-11-07T18:01:59.432Z,11.25
2022-11-07T18:04:30.073Z,11.50
2022-11-07T18:06:59.289Z,8.48
2022-11-07T18:09:28.402Z,18.05
2022-11-07T18:11:57.755Z,50.00
2022-11-07T18:14:26.826Z,24.65
2022-11-07T18:16:56.168Z,33.78
2022-11-07T18:19:25.231Z,23.92
2022-11-07T18:21:56.197Z,28.73
2022-11-07T18:24:25.458Z,23.08
2022-11-07T18:26:55.531Z,22.60
2022-11-07T18:29:24.859Z,22.73
2022-11-07T18:31:56.981Z,20.20
2022-11-07T18:34:26.248Z,14.60
2022-11-07T18:36:56.928Z,19.15
2022-11-07T18:39:26.461Z,19.35
2022-11-07T18:41:55.707Z,21.90
2022-11-07T18:44:24.811Z,16.98
2022-11-07T18:46:53.863Z,16.27
2022-11-07T18:49:24.499Z,21.17
2022-11-07T18:51:53.734Z,25.20
2022-11-07T18:54:25.892Z,24.90
2022-11-07T18:56:55.029Z,18.65
2022-11-07T18:59:24.134Z,17.02
2022-11-07T19:01:53.478Z,16.80
2022-11-07T19:04:23.316Z,20.02
2022-11-07T19:07:05.587Z,14.90
2022-11-07T19:09:41.644Z,15.93
2022-11-07T19:12:21.077Z,17.70
2022-11-07T19:14:50.329Z,23.23
2022-11-07T19:17:20.723Z,20.15
2022-11-07T19:19:50.223Z,18.92
2022-11-07T19:22:19.763Z,13.95
2022-11-07T19:24:50.704Z,18.40
2022-11-07T19:27:20.506Z,23.85
2022-11-07T19:29:50.960Z,19.38
2022-11-07T19:32:23.084Z,31.65
2022-11-07T19:34:55.772Z,24.25
2022-11-07T19:37:25.146Z,20.90
2022-11-07T19:39:55.964Z,18.45
2022-11-07T19:42:28.923Z,18.52
2022-11-07T19:44:58.178Z,17.65
2022-11-07T19:47:27.497Z,26.83
2022-11-07T19:49:56.905Z,24.13
2022-11-07T19:52:27.035Z,29.90
2022-11-07T19:55:09.255Z,26.05
2022-11-07T19:57:38.681Z,32.85
2022-11-07T20:00:12.647Z,32.80
2022-11-07T20:02:44.779Z,25.13
2022-11-07T20:05:14.602Z,24.52
2022-11-07T20:10:57.749Z,24.13
2022-11-07T20:13:34.887Z,25.25
2022-11-07T20:16:08.699Z,22.25
2022-11-07T20:18:38.945Z,18.25
2022-11-07T20:21:13.135Z,18.00
2022-11-07T20:23:45.914Z,20.83
2022-11-07T20:26:23.374Z,21.63
2022-11-07T20:28:54.787Z,17.35
2022-11-07T20:31:28.892Z,19.75
2022-11-07T20:34:00.152Z,18.80
2022-11-07T20:36:31.296Z,18.65
2022-11-07T20:39:02.243Z,18.45
2022-11-07T20:41:36.931Z,20.80
2022-11-07T20:44:09.757Z,16.10
2022-11-07T20:46:44.662Z,22.45
2022-11-07T20:49:16.885Z,19.50
2022-11-07T20:51:46.716Z,17.25
2022-11-07T20:54:17.296Z,16.55
2022-11-07T20:56:49.045Z,13.38
2022-11-07T20:59:18.284Z,14.30
2022-11-07T21:01:50.923Z,13.30
2022-11-07T21:04:22.353Z,14.90
2022-11-07T21:06:51.651Z,18.98
2022-11-07T21:09:23.505Z,17.58
2022-11-07T21:11:55.187Z,15.35
2022-11-07T21:14:26.175Z,15.30
2022-11-07T21:16:55.411Z,17.00
2022-11-07T21:19:24.579Z,19.00
2022-11-07T21:21:53.679Z,20.58
2022-11-07T21:24:23.456Z,22.08
2022-11-07T21:26:54.150Z,22.85
2022-11-07T21:29:29.047Z,18.88
2022-11-07T21:32:02.569Z,20.02
2022-11-07T21:34:37.827Z,18.50
2022-11-07T21:37:08.568Z,12.90
2022-11-07T21:39:37.908Z,13.60
2022-11-07T21:42:08.755Z,16.50
2022-11-07T21:44:41.519Z,16.15
2022-11-07T21:47:11.857Z,19.63
2022-11-07T21:49:43.011Z,27.88
2022-11-07T21:52:12.631Z,23.55
2022-11-07T21:55:07.977Z,25.40
2022-11-07T21:57:42.585Z,31.80
2022-11-07T22:00:13.889Z,28.60
2022-11-07T22:02:43.424Z,29.13
2022-11-07T22:05:14.629Z,27.92
2022-11-07T22:07:50.038Z,26.70
2022-11-07T22:10:19.482Z,29.05
2022-11-07T22:12:51.230Z,34.38
2022-11-07T22:15:24.533Z,33.42
2022-11-07T22:17:56.808Z,34.20
2022-11-07T22:20:26.121Z,31.95
2022-11-07T22:22:55.432Z,28.73
2022-11-07T22:25:24.670Z,28.08
2022-11-07T22:27:55.303Z,32.80
2022-11-07T22:30:24.411Z,32.35
2022-11-07T22:32:53.704Z,27.13
2022-11-07T22:35:22.782Z,24.17
2022-11-07T22:37:52.260Z,27.90
2022-11-07T22:40:21.542Z,30.38
2022-11-07T22:42:50.827Z,29.25
2022-11-07T22:45:27.281Z,28.35
2022-11-07T22:47:56.367Z,20.53
2022-11-07T22:50:25.581Z,17.35
2022-11-07T22:52:56.201Z,18.00
2022-11-07T22:55:25.455Z,20.17
2022-11-07T22:57:55.115Z,24.38
2022-11-07T23:00:24.490Z,22.85
2022-11-07T23:02:55.042Z,26.92
2022-11-07T23:05:24.297Z,23.65
2022-11-07T23:07:55.004Z,23.27
2022-11-07T23:10:24.149Z,25.02
2022-11-07T23:12:53.991Z,23.00
2022-11-07T23:15:23.140Z,19.98
2022-11-07T23:17:52.387Z,19.77
2022-11-07T23:20:36.831Z,40.70
2022-11-07T23:23:11.421Z,34.63
2022-11-07T23:25:40.666Z,27.13
2022-11-07T23:28:09.858Z,24.73
2022-11-07T23:30:40.041Z,25.92
2022-11-07T23:33:12.256Z,28.05
2022-11-07T23:35:43.428Z,27.10
2022-11-07T23:38:13.733Z,27.50
2022-11-07T23:40:43.428Z,23.00
2022-11-07T23:43:12.593Z,24.77
2022-11-07T23:45:59.301Z,25.45
2022-11-07T23:48:45.900Z,25.13
2022-11-07T23:51:17.634Z,22.88
2022-11-07T23:54:04.095Z,26.98
2022-11-07T23:56:33.494Z,26.13
2022-11-07T23:59:20.014Z,28.63
